ICE334 BIKF-ENBR
Flight info
| Callsign | ICE334 |
|---|---|
| Flight time | N/A |
| Altitude | 35000 |
| Route | OSKUM3D OSKUM DCT 63N010W DCT GUNPA/N0441F350 DCT MODNI |
| Aircraft | B752/M-SDE2E3FGHIJ3J4J7RWXY/LB1 |
Departure
| Time | N/A |
|---|---|
| Airport | Keflavik International Airport (BIKF) |
Arrival
| Time | 2026-05-03 21:03 |
|---|---|
| Airport | Bergen Airport, Flesland (ENBR) |
| Time | Latitude | Longitude | Altitude | Speed | Heading |
|---|---|---|---|---|---|
| 2026-05-03 20:15 | 61.98171 | -4.76383 | 34884 ft | 521 kts | 111° |
| 2026-05-03 20:15 | 61.95549 | -4.62079 | 34894 ft | 522 kts | 111° |
| 2026-05-03 20:16 | 61.92915 | -4.47821 | 34865 ft | 521 kts | 111° |
| 2026-05-03 20:16 | 61.90266 | -4.33573 | 34879 ft | 522 kts | 112° |
| 2026-05-03 20:17 | 61.87600 | -4.19346 | 34852 ft | 522 kts | 113° |
| 2026-05-03 20:17 | 61.84923 | -4.05171 | 34885 ft | 520 kts | 112° |
| 2026-05-03 20:18 | 61.82229 | -3.90997 | 34873 ft | 523 kts | 113° |
| 2026-05-03 20:18 | 61.79515 | -3.76822 | 34871 ft | 522 kts | 113° |
| 2026-05-03 20:19 | 61.76782 | -3.62655 | 34876 ft | 522 kts | 113° |
| 2026-05-03 20:19 | 61.74043 | -3.48550 | 34883 ft | 522 kts | 113° |
| 2026-05-03 20:20 | 61.71285 | -3.34445 | 34894 ft | 522 kts | 114° |
| 2026-05-03 20:20 | 61.68518 | -3.20400 | 34868 ft | 521 kts | 114° |
| 2026-05-03 20:21 | 61.65740 | -3.06391 | 34864 ft | 520 kts | 114° |
| 2026-05-03 20:21 | 61.62951 | -2.92430 | 34879 ft | 520 kts | 114° |
| 2026-05-03 20:22 | 61.60145 | -2.78476 | 34856 ft | 521 kts | 114° |
| 2026-05-03 20:22 | 61.57329 | -2.64568 | 34865 ft | 520 kts | 114° |
| 2026-05-03 20:23 | 61.54504 | -2.50712 | 34855 ft | 520 kts | 114° |
| 2026-05-03 20:23 | 61.51662 | -2.36869 | 34871 ft | 519 kts | 114° |
| 2026-05-03 20:24 | 61.48810 | -2.23068 | 34854 ft | 518 kts | 115° |
| 2026-05-03 20:24 | 61.45948 | -2.09310 | 34844 ft | 519 kts | 115° |
| 2026-05-03 20:25 | 61.43071 | -1.95572 | 34850 ft | 518 kts | 115° |
| 2026-05-03 20:25 | 61.40179 | -1.81854 | 34854 ft | 518 kts | 116° |
| 2026-05-03 20:26 | 61.37267 | -1.68139 | 34856 ft | 519 kts | 116° |
| 2026-05-03 20:26 | 61.34344 | -1.54452 | 34819 ft | 517 kts | 115° |
| 2026-05-03 20:27 | 61.31419 | -1.40851 | 34852 ft | 517 kts | 116° |
| 2026-05-03 20:27 | 61.28481 | -1.27272 | 34824 ft | 517 kts | 117° |
| 2026-05-03 20:28 | 61.25534 | -1.13749 | 34828 ft | 516 kts | 116° |
| 2026-05-03 20:28 | 61.22575 | -1.00251 | 34837 ft | 516 kts | 117° |
| 2026-05-03 20:29 | 61.19595 | -0.86742 | 34850 ft | 518 kts | 117° |
| 2026-05-03 20:29 | 61.16601 | -0.73258 | 34836 ft | 516 kts | 117° |
| 2026-05-03 20:30 | 61.13597 | -0.59816 | 34840 ft | 517 kts | 117° |
| 2026-05-03 20:30 | 61.10578 | -0.46392 | 34852 ft | 516 kts | 117° |
| 2026-05-03 20:31 | 61.07547 | -0.32998 | 34854 ft | 516 kts | 118° |
| 2026-05-03 20:31 | 61.04513 | -0.19674 | 34808 ft | 515 kts | 118° |
| 2026-05-03 20:32 | 61.01471 | -0.06414 | 34833 ft | 514 kts | 118° |
| 2026-05-03 20:32 | 60.98474 | 0.06945 | 34836 ft | 515 kts | 117° |
| 2026-05-03 20:33 | 60.95511 | 0.20271 | 34834 ft | 514 kts | 117° |
| 2026-05-03 20:33 | 60.92538 | 0.33570 | 34847 ft | 514 kts | 117° |
| 2026-05-03 20:34 | 60.89556 | 0.46840 | 34829 ft | 512 kts | 117° |
| 2026-05-03 20:34 | 60.86569 | 0.60054 | 34854 ft | 513 kts | 117° |
| 2026-05-03 20:35 | 60.83569 | 0.73245 | 34843 ft | 511 kts | 118° |
| 2026-05-03 20:35 | 60.80565 | 0.86364 | 34842 ft | 511 kts | 118° |
| 2026-05-03 20:36 | 60.77552 | 0.99447 | 34833 ft | 510 kts | 118° |
| 2026-05-03 20:36 | 60.74528 | 1.12497 | 34841 ft | 510 kts | 118° |
| 2026-05-03 20:37 | 60.71498 | 1.25496 | 34841 ft | 508 kts | 118° |
| 2026-05-03 20:37 | 60.68468 | 1.38421 | 34854 ft | 507 kts | 118° |
| 2026-05-03 20:38 | 60.65425 | 1.51313 | 34845 ft | 507 kts | 118° |
| 2026-05-03 20:38 | 60.62355 | 1.64253 | 34861 ft | 507 kts | 118° |
| 2026-05-03 20:39 | 60.59292 | 1.77085 | 34843 ft | 504 kts | 119° |
| 2026-05-03 20:39 | 60.56227 | 1.89845 | 34858 ft | 505 kts | 119° |
| 2026-05-03 20:40 | 60.53146 | 2.02598 | 34855 ft | 504 kts | 119° |
| 2026-05-03 20:40 | 60.50066 | 2.15277 | 34853 ft | 503 kts | 120° |
| 2026-05-03 20:41 | 60.46974 | 2.27928 | 34867 ft | 503 kts | 120° |
| 2026-05-03 20:41 | 60.45445 | 2.34164 | 34874 ft | 489 kts | 120° |
| 2026-05-03 20:41 | 60.43960 | 2.40209 | 34844 ft | 475 kts | 120° |
| 2026-05-03 20:41 | 60.42503 | 2.46109 | 34560 ft | 469 kts | 120° |
| 2026-05-03 20:42 | 60.41050 | 2.51977 | 34087 ft | 470 kts | 120° |
| 2026-05-03 20:42 | 60.39594 | 2.57843 | 33618 ft | 469 kts | 121° |
| 2026-05-03 20:42 | 60.38139 | 2.63694 | 33099 ft | 469 kts | 121° |
| 2026-05-03 20:42 | 60.36675 | 2.69558 | 32561 ft | 469 kts | 122° |
| 2026-05-03 20:43 | 60.35212 | 2.75408 | 31985 ft | 469 kts | 122° |
| 2026-05-03 20:43 | 60.33748 | 2.81243 | 31293 ft | 470 kts | 122° |
| 2026-05-03 20:43 | 60.32278 | 2.87091 | 30549 ft | 471 kts | 122° |
| 2026-05-03 20:43 | 60.30801 | 2.92944 | 29799 ft | 471 kts | 122° |
| 2026-05-03 20:44 | 60.29326 | 2.98782 | 29242 ft | 466 kts | 122° |
| 2026-05-03 20:44 | 60.27859 | 3.04575 | 28605 ft | 463 kts | 122° |
| 2026-05-03 20:44 | 60.26403 | 3.10303 | 28047 ft | 459 kts | 122° |
| 2026-05-03 20:44 | 60.24961 | 3.15964 | 27464 ft | 455 kts | 122° |
| 2026-05-03 20:45 | 60.23521 | 3.21600 | 26871 ft | 452 kts | 122° |
| 2026-05-03 20:45 | 60.22095 | 3.27170 | 26306 ft | 449 kts | 122° |
| 2026-05-03 20:45 | 60.20680 | 3.32686 | 25778 ft | 444 kts | 122° |
| 2026-05-03 20:45 | 60.19274 | 3.38150 | 25155 ft | 442 kts | 122° |
| 2026-05-03 20:46 | 60.17870 | 3.43592 | 24590 ft | 439 kts | 122° |
| 2026-05-03 20:46 | 60.16061 | 3.50585 | 23888 ft | 435 kts | 122° |
| 2026-05-03 20:46 | 60.12812 | 3.63087 | 22648 ft | 427 kts | 122° |
| 2026-05-03 20:46 | 60.10066 | 3.73609 | 21624 ft | 419 kts | 122° |
| 2026-05-03 20:47 | 60.08720 | 3.78743 | 21113 ft | 416 kts | 122° |
| 2026-05-03 20:47 | 60.07381 | 3.83842 | 20589 ft | 413 kts | 122° |
| 2026-05-03 20:47 | 60.06054 | 3.88882 | 20099 ft | 409 kts | 122° |
| 2026-05-03 20:47 | 60.04855 | 3.94034 | 19537 ft | 412 kts | 111° |
| 2026-05-03 20:48 | 60.04270 | 3.99623 | 18995 ft | 414 kts | 95° |
| 2026-05-03 20:48 | 60.04398 | 4.05324 | 18506 ft | 412 kts | 79° |
| 2026-05-03 20:48 | 60.05094 | 4.10836 | 17993 ft | 408 kts | 74° |
| 2026-05-03 20:48 | 60.05812 | 4.16289 | 17536 ft | 404 kts | 75° |
| 2026-05-03 20:49 | 60.06492 | 4.21692 | 17084 ft | 400 kts | 75° |
| 2026-05-03 20:49 | 60.07153 | 4.27050 | 16582 ft | 398 kts | 75° |
| 2026-05-03 20:49 | 60.07802 | 4.32383 | 16158 ft | 393 kts | 75° |
| 2026-05-03 20:49 | 60.08440 | 4.37666 | 15685 ft | 390 kts | 76° |
| 2026-05-03 20:50 | 60.09068 | 4.42898 | 15239 ft | 385 kts | 76° |
| 2026-05-03 20:50 | 60.09686 | 4.48071 | 14786 ft | 382 kts | 75° |
| 2026-05-03 20:50 | 60.10299 | 4.53215 | 14309 ft | 379 kts | 76° |
| 2026-05-03 20:50 | 60.10894 | 4.58241 | 13935 ft | 362 kts | 76° |
| 2026-05-03 20:51 | 60.11452 | 4.63006 | 13567 ft | 343 kts | 78° |
| 2026-05-03 20:51 | 60.11632 | 4.67606 | 13205 ft | 326 kts | 97° |
| 2026-05-03 20:51 | 60.11326 | 4.72038 | 12535 ft | 322 kts | 101° |
| 2026-05-03 20:51 | 60.10776 | 4.76248 | 12162 ft | 302 kts | 122° |
| 2026-05-03 20:52 | 60.09559 | 4.79417 | 11797 ft | 280 kts | 149° |
| 2026-05-03 20:52 | 60.07878 | 4.81143 | 11130 ft | 269 kts | 172° |
| 2026-05-03 20:52 | 60.06086 | 4.81904 | 10618 ft | 260 kts | 178° |
| 2026-05-03 20:52 | 60.04323 | 4.82751 | 9981 ft | 267 kts | 162° |
| 2026-05-03 20:53 | 60.02628 | 4.84214 | 9455 ft | 264 kts | 163° |
| 2026-05-03 20:53 | 60.00934 | 4.85543 | 8880 ft | 262 kts | 164° |
| 2026-05-03 20:53 | 59.99269 | 4.87016 | 8557 ft | 262 kts | 149° |
| 2026-05-03 20:53 | 59.97820 | 4.89284 | 8111 ft | 269 kts | 143° |
| 2026-05-03 20:54 | 59.96390 | 4.91636 | 7893 ft | 262 kts | 144° |
| 2026-05-03 20:54 | 59.94070 | 4.96889 | 7941 ft | 265 kts | 123° |
| 2026-05-03 20:54 | 59.93107 | 5.00075 | 7904 ft | 269 kts | 123° |
| 2026-05-03 20:55 | 59.92175 | 5.03279 | 7894 ft | 266 kts | 114° |
| 2026-05-03 20:55 | 59.91701 | 5.06848 | 7790 ft | 273 kts | 99° |
| 2026-05-03 20:55 | 59.91475 | 5.10654 | 7311 ft | 278 kts | 84° |
| 2026-05-03 20:55 | 59.92002 | 5.14273 | 7004 ft | 267 kts | 52° |
| 2026-05-03 20:56 | 59.93262 | 5.16713 | 6949 ft | 246 kts | 22° |
| 2026-05-03 20:56 | 59.94872 | 5.17533 | 6564 ft | 238 kts | 352° |
| 2026-05-03 20:56 | 59.96494 | 5.17139 | 6290 ft | 234 kts | 350° |
| 2026-05-03 20:56 | 59.98115 | 5.16837 | 5961 ft | 235 kts | 352° |
| 2026-05-03 20:57 | 59.99763 | 5.16602 | 5512 ft | 240 kts | 353° |
| 2026-05-03 20:57 | 60.01441 | 5.16402 | 5054 ft | 246 kts | 354° |
| 2026-05-03 20:57 | 60.03127 | 5.16228 | 4919 ft | 236 kts | 354° |
| 2026-05-03 20:57 | 60.04776 | 5.16067 | 4468 ft | 242 kts | 354° |
| 2026-05-03 20:58 | 60.06461 | 5.16306 | 3976 ft | 250 kts | 17° |
| 2026-05-03 20:58 | 60.07911 | 5.18175 | 3701 ft | 249 kts | 49° |
| 2026-05-03 20:58 | 60.08815 | 5.21018 | 3718 ft | 234 kts | 58° |
| 2026-05-03 20:58 | 60.09617 | 5.23760 | 3697 ft | 226 kts | 57° |
| 2026-05-03 20:59 | 60.10617 | 5.26170 | 3737 ft | 228 kts | 30° |
| 2026-05-03 20:59 | 60.12053 | 5.27370 | 3820 ft | 219 kts | 4° |
| 2026-05-03 20:59 | 60.13487 | 5.27102 | 3769 ft | 201 kts | 347° |
| 2026-05-03 20:59 | 60.14846 | 5.26609 | 3582 ft | 198 kts | 349° |
| 2026-05-03 21:00 | 60.16219 | 5.26171 | 3419 ft | 201 kts | 350° |
| 2026-05-03 21:00 | 60.17141 | 5.25877 | 3267 ft | 204 kts | 350° |
| 2026-05-03 21:00 | 60.18973 | 5.25265 | 2991 ft | 195 kts | 349° |
| 2026-05-03 21:00 | 60.20333 | 5.24796 | 2424 ft | 206 kts | 349° |
| 2026-05-03 21:01 | 60.21740 | 5.24353 | 1825 ft | 199 kts | 349° |
| 2026-05-03 21:01 | 60.23043 | 5.23941 | 1388 ft | 183 kts | 350° |
| 2026-05-03 21:01 | 60.24241 | 5.23574 | 1054 ft | 166 kts | 348° |
| 2026-05-03 21:01 | 60.25291 | 5.23202 | 977 ft | 138 kts | 351° |
| 2026-05-03 21:02 | 60.26194 | 5.22906 | 661 ft | 128 kts | 347° |
| 2026-05-03 21:02 | 60.27065 | 5.22576 | 424 ft | 133 kts | 348° |
| 2026-05-03 21:02 | 60.28010 | 5.22263 | 243 ft | 138 kts | 348° |
| 2026-05-03 21:02 | 60.28894 | 5.21960 | 165 ft | 116 kts | 350° |
| 2026-05-03 21:03 | 60.29489 | 5.21762 | 158 ft | 62 kts | 350° |
| 2026-05-03 21:03 | 60.29794 | 5.21663 | 156 ft | 27 kts | 350° |
| 2026-05-03 21:03 | 60.29966 | 5.21606 | 158 ft | 14 kts | 348° |
| 2026-05-03 21:03 | 60.30014 | 5.21622 | 159 ft | 7 kts | 36° |
| 2026-05-03 21:04 | 60.30041 | 5.21761 | 158 ft | 7 kts | 81° |
| 2026-05-03 21:04 | 60.30040 | 5.21859 | 157 ft | 5 kts | 113° |
| 2026-05-03 21:04 | 60.30006 | 5.21910 | 157 ft | 7 kts | 164° |
| 2026-05-03 21:04 | 60.29928 | 5.21937 | 156 ft | 13 kts | 170° |
| 2026-05-03 21:05 | 60.29839 | 5.21968 | 155 ft | 12 kts | 170° |
| 2026-05-03 21:05 | 60.29756 | 5.21995 | 155 ft | 11 kts | 171° |
| 2026-05-03 21:05 | 60.29664 | 5.22027 | 156 ft | 21 kts | 171° |
| 2026-05-03 21:05 | 60.29484 | 5.22086 | 159 ft | 26 kts | 170° |
| 2026-05-03 21:06 | 60.29309 | 5.22147 | 161 ft | 24 kts | 170° |
| 2026-05-03 21:06 | 60.29153 | 5.22199 | 165 ft | 21 kts | 169° |
| 2026-05-03 21:06 | 60.29012 | 5.22246 | 166 ft | 19 kts | 170° |
| 2026-05-03 21:06 | 60.28946 | 5.22278 | 166 ft | 6 kts | 145° |
| 2026-05-03 21:07 | 60.28936 | 5.22350 | 167 ft | 4 kts | 72° |
| 2026-05-03 21:07 | 60.28943 | 5.22379 | 167 ft | 5 kts | 70° |
| 2026-05-03 21:07 | 60.28941 | 5.22453 | 167 ft | 5 kts | 104° |
| 2026-05-03 21:07 | 60.28931 | 5.22526 | 167 ft | 4 kts | 107° |
| 2026-05-03 21:08 | 60.28928 | 5.22544 | 167 ft | 0 kts | 107° |